sensor_id;sensor_type;location;lat;lon;timestamp;P1;durP1;ratioP1;P2;durP2;ratioP2
11139;SDS011;5624;49.388;11.350;2022-12-05T00:01:41;31.40;;;19.97;;
11139;SDS011;5624;49.388;11.350;2022-12-05T00:04:05;25.20;;;17.03;;
11139;SDS011;5624;49.388;11.350;2022-12-05T00:06:33;32.70;;;19.33;;
11139;SDS011;5624;49.388;11.350;2022-12-05T00:09:01;30.47;;;17.40;;
11139;SDS011;5624;49.388;11.350;2022-12-05T00:11:28;24.40;;;17.47;;
11139;SDS011;5624;49.388;11.350;2022-12-05T00:13:56;25.03;;;15.90;;
11139;SDS011;5624;49.388;11.350;2022-12-05T00:16:24;29.00;;;19.03;;
11139;SDS011;5624;49.388;11.350;2022-12-05T00:18:50;28.83;;;17.83;;
11139;SDS011;5624;49.388;11.350;2022-12-05T00:21:21;29.87;;;17.20;;
11139;SDS011;5624;49.388;11.350;2022-12-05T00:23:49;30.37;;;18.10;;
11139;SDS011;5624;49.388;11.350;2022-12-05T00:26:15;27.37;;;17.03;;
11139;SDS011;5624;49.388;11.350;2022-12-05T00:28:42;25.73;;;17.33;;
11139;SDS011;5624;49.388;11.350;2022-12-05T00:31:09;27.13;;;17.57;;
11139;SDS011;5624;49.388;11.350;2022-12-05T00:33:36;35.97;;;21.53;;
11139;SDS011;5624;49.388;11.350;2022-12-05T00:36:03;27.10;;;18.80;;
11139;SDS011;5624;49.388;11.350;2022-12-05T00:38:30;29.23;;;18.30;;
11139;SDS011;5624;49.388;11.350;2022-12-05T00:41:01;30.70;;;19.63;;
11139;SDS011;5624;49.388;11.350;2022-12-05T00:43:30;28.67;;;17.83;;
11139;SDS011;5624;49.388;11.350;2022-12-05T00:45:59;29.13;;;17.87;;
11139;SDS011;5624;49.388;11.350;2022-12-05T00:48:29;28.70;;;17.67;;
11139;SDS011;5624;49.388;11.350;2022-12-05T00:50:59;28.23;;;16.83;;
11139;SDS011;5624;49.388;11.350;2022-12-05T00:53:30;28.13;;;19.40;;
11139;SDS011;5624;49.388;11.350;2022-12-05T00:56:00;28.20;;;19.33;;
11139;SDS011;5624;49.388;11.350;2022-12-05T00:58:30;28.00;;;18.07;;
11139;SDS011;5624;49.388;11.350;2022-12-05T01:00:56;30.47;;;18.90;;
11139;SDS011;5624;49.388;11.350;2022-12-05T01:03:29;28.67;;;18.83;;
11139;SDS011;5624;49.388;11.350;2022-12-05T01:05:55;28.87;;;19.13;;
11139;SDS011;5624;49.388;11.350;2022-12-05T01:08:23;33.30;;;20.40;;
11139;SDS011;5624;49.388;11.350;2022-12-05T01:10:52;30.60;;;18.80;;
11139;SDS011;5624;49.388;11.350;2022-12-05T01:13:19;30.70;;;19.37;;
11139;SDS011;5624;49.388;11.350;2022-12-05T01:15:45;29.80;;;18.83;;
11139;SDS011;5624;49.388;11.350;2022-12-05T01:18:11;28.93;;;20.40;;
11139;SDS011;5624;49.388;11.350;2022-12-05T01:20:40;29.90;;;19.00;;
11139;SDS011;5624;49.388;11.350;2022-12-05T01:23:07;29.10;;;18.67;;
11139;SDS011;5624;49.388;11.350;2022-12-05T01:25:33;28.60;;;19.50;;
11139;SDS011;5624;49.388;11.350;2022-12-05T01:27:59;26.33;;;18.00;;
11139;SDS011;5624;49.388;11.350;2022-12-05T01:30:24;31.20;;;19.00;;
11139;SDS011;5624;49.388;11.350;2022-12-05T01:32:51;28.90;;;18.37;;
11139;SDS011;5624;49.388;11.350;2022-12-05T01:35:16;28.93;;;17.60;;
11139;SDS011;5624;49.388;11.350;2022-12-05T01:37:42;29.67;;;18.83;;
11139;SDS011;5624;49.388;11.350;2022-12-05T01:40:08;28.90;;;19.43;;
11139;SDS011;5624;49.388;11.350;2022-12-05T01:42:34;30.83;;;18.63;;
11139;SDS011;5624;49.388;11.350;2022-12-05T01:45:01;29.80;;;19.07;;
11139;SDS011;5624;49.388;11.350;2022-12-05T01:47:30;28.70;;;18.50;;
11139;SDS011;5624;49.388;11.350;2022-12-05T01:49:58;25.80;;;18.40;;
11139;SDS011;5624;49.388;11.350;2022-12-05T01:52:25;29.07;;;18.20;;
11139;SDS011;5624;49.388;11.350;2022-12-05T01:54:53;33.53;;;20.20;;
11139;SDS011;5624;49.388;11.350;2022-12-05T01:57:20;29.63;;;18.80;;
11139;SDS011;5624;49.388;11.350;2022-12-05T01:59:49;27.33;;;18.43;;
11139;SDS011;5624;49.388;11.350;2022-12-05T02:02:17;28.50;;;19.20;;
11139;SDS011;5624;49.388;11.350;2022-12-05T02:04:54;28.27;;;18.67;;
11139;SDS011;5624;49.388;11.350;2022-12-05T02:07:31;28.60;;;18.53;;
11139;SDS011;5624;49.388;11.350;2022-12-05T02:09:57;29.73;;;19.17;;
11139;SDS011;5624;49.388;11.350;2022-12-05T02:12:23;29.83;;;18.53;;
11139;SDS011;5624;49.388;11.350;2022-12-05T02:17:49;28.40;;;18.50;;
11139;SDS011;5624;49.388;11.350;2022-12-05T02:21:09;22.47;;;15.43;;
11139;SDS011;5624;49.388;11.350;2022-12-05T02:32:33;21.13;;;13.20;;
11139;SDS011;5624;49.388;11.350;2022-12-05T02:41:35;20.43;;;13.13;;
11139;SDS011;5624;49.388;11.350;2022-12-05T02:46:35;23.17;;;13.77;;
11139;SDS011;5624;49.388;11.350;2022-12-05T02:49:08;19.87;;;13.50;;
11139;SDS011;5624;49.388;11.350;2022-12-05T02:51:43;19.60;;;13.63;;
11139;SDS011;5624;49.388;11.350;2022-12-05T02:54:13;18.53;;;12.17;;
11139;SDS011;5624;49.388;11.350;2022-12-05T02:56:43;19.57;;;11.93;;
11139;SDS011;5624;49.388;11.350;2022-12-05T02:59:11;17.63;;;11.57;;
11139;SDS011;5624;49.388;11.350;2022-12-05T03:01:37;20.20;;;12.90;;
11139;SDS011;5624;49.388;11.350;2022-12-05T03:04:03;21.23;;;13.13;;
11139;SDS011;5624;49.388;11.350;2022-12-05T03:06:38;18.37;;;11.63;;
11139;SDS011;5624;49.388;11.350;2022-12-05T03:11:59;18.20;;;12.03;;
11139;SDS011;5624;49.388;11.350;2022-12-05T03:14:42;18.17;;;11.50;;
11139;SDS011;5624;49.388;11.350;2022-12-05T03:17:14;16.47;;;10.57;;
11139;SDS011;5624;49.388;11.350;2022-12-05T03:22:32;17.50;;;11.20;;
11139;SDS011;5624;49.388;11.350;2022-12-05T03:25:03;16.30;;;9.93;;
11139;SDS011;5624;49.388;11.350;2022-12-05T03:27:52;16.87;;;11.27;;
11139;SDS011;5624;49.388;11.350;2022-12-05T03:30:33;14.83;;;10.33;;
11139;SDS011;5624;49.388;11.350;2022-12-05T03:33:06;14.77;;;9.73;;
11139;SDS011;5624;49.388;11.350;2022-12-05T03:40:54;16.67;;;8.80;;
11139;SDS011;5624;49.388;11.350;2022-12-05T03:48:37;12.93;;;9.00;;
11139;SDS011;5624;49.388;11.350;2022-12-05T03:51:07;12.70;;;9.30;;
11139;SDS011;5624;49.388;11.350;2022-12-05T03:53:38;13.97;;;8.37;;
11139;SDS011;5624;49.388;11.350;2022-12-05T03:56:09;11.33;;;8.03;;
11139;SDS011;5624;49.388;11.350;2022-12-05T03:58:51;12.40;;;8.20;;
11139;SDS011;5624;49.388;11.350;2022-12-05T04:01:23;9.73;;;6.87;;
11139;SDS011;5624;49.388;11.350;2022-12-05T04:03:54;10.90;;;7.33;;
11139;SDS011;5624;49.388;11.350;2022-12-05T04:06:25;10.93;;;7.73;;
11139;SDS011;5624;49.388;11.350;2022-12-05T04:08:57;11.93;;;8.07;;
11139;SDS011;5624;49.388;11.350;2022-12-05T04:11:26;10.13;;;7.17;;
11139;SDS011;5624;49.388;11.350;2022-12-05T04:13:59;11.27;;;7.60;;
11139;SDS011;5624;49.388;11.350;2022-12-05T04:16:45;11.13;;;6.67;;
11139;SDS011;5624;49.388;11.350;2022-12-05T04:22:28;12.13;;;7.43;;
11139;SDS011;5624;49.388;11.350;2022-12-05T04:24:54;14.40;;;7.53;;
11139;SDS011;5624;49.388;11.350;2022-12-05T04:30:38;10.63;;;7.50;;
11139;SDS011;5624;49.388;11.350;2022-12-05T04:33:15;11.77;;;7.53;;
11139;SDS011;5624;49.388;11.350;2022-12-05T04:35:51;9.80;;;7.00;;
11139;SDS011;5624;49.388;11.350;2022-12-05T04:38:23;11.93;;;7.00;;
11139;SDS011;5624;49.388;11.350;2022-12-05T04:41:01;13.90;;;7.97;;
11139;SDS011;5624;49.388;11.350;2022-12-05T04:43:31;13.10;;;7.60;;
11139;SDS011;5624;49.388;11.350;2022-12-05T04:46:02;11.93;;;7.20;;
11139;SDS011;5624;49.388;11.350;2022-12-05T04:48:31;12.23;;;7.33;;
11139;SDS011;5624;49.388;11.350;2022-12-05T04:50:59;12.90;;;7.43;;
11139;SDS011;5624;49.388;11.350;2022-12-05T04:53:28;11.93;;;7.30;;
11139;SDS011;5624;49.388;11.350;2022-12-05T04:55:54;12.33;;;7.83;;
11139;SDS011;5624;49.388;11.350;2022-12-05T04:58:24;10.73;;;6.93;;
11139;SDS011;5624;49.388;11.350;2022-12-05T05:00:55;11.33;;;7.57;;
11139;SDS011;5624;49.388;11.350;2022-12-05T05:03:37;12.13;;;7.70;;
11139;SDS011;5624;49.388;11.350;2022-12-05T05:06:04;11.47;;;7.00;;
11139;SDS011;5624;49.388;11.350;2022-12-05T05:08:31;11.87;;;7.87;;
11139;SDS011;5624;49.388;11.350;2022-12-05T05:13:31;14.87;;;8.17;;
11139;SDS011;5624;49.388;11.350;2022-12-05T05:15:56;15.17;;;8.00;;
11139;SDS011;5624;49.388;11.350;2022-12-05T05:18:22;11.27;;;8.40;;
11139;SDS011;5624;49.388;11.350;2022-12-05T05:20:48;12.90;;;7.90;;
11139;SDS011;5624;49.388;11.350;2022-12-05T05:23:14;11.03;;;6.77;;
11139;SDS011;5624;49.388;11.350;2022-12-05T05:25:39;14.43;;;8.80;;
11139;SDS011;5624;49.388;11.350;2022-12-05T05:28:05;14.27;;;8.30;;
11139;SDS011;5624;49.388;11.350;2022-12-05T05:30:31;14.20;;;8.10;;
11139;SDS011;5624;49.388;11.350;2022-12-05T05:32:57;12.23;;;7.23;;
11139;SDS011;5624;49.388;11.350;2022-12-05T05:35:24;12.17;;;7.83;;
11139;SDS011;5624;49.388;11.350;2022-12-05T05:37:50;12.00;;;7.83;;
11139;SDS011;5624;49.388;11.350;2022-12-05T05:40:15;14.27;;;7.93;;
11139;SDS011;5624;49.388;11.350;2022-12-05T05:42:43;15.50;;;7.73;;
11139;SDS011;5624;49.388;11.350;2022-12-05T05:45:10;10.13;;;6.83;;
11139;SDS011;5624;49.388;11.350;2022-12-05T05:47:37;14.07;;;8.10;;
11139;SDS011;5624;49.388;11.350;2022-12-05T05:50:03;11.77;;;7.10;;
11139;SDS011;5624;49.388;11.350;2022-12-05T05:52:31;10.53;;;6.97;;
11139;SDS011;5624;49.388;11.350;2022-12-05T05:54:57;9.63;;;6.53;;
11139;SDS011;5624;49.388;11.350;2022-12-05T05:57:23;9.93;;;7.00;;
11139;SDS011;5624;49.388;11.350;2022-12-05T05:59:48;9.37;;;7.00;;
11139;SDS011;5624;49.388;11.350;2022-12-05T06:02:14;10.60;;;6.60;;
11139;SDS011;5624;49.388;11.350;2022-12-05T06:04:40;9.03;;;6.40;;
11139;SDS011;5624;49.388;11.350;2022-12-05T06:07:05;11.80;;;7.97;;
11139;SDS011;5624;49.388;11.350;2022-12-05T06:09:31;11.70;;;6.97;;
11139;SDS011;5624;49.388;11.350;2022-12-05T06:11:57;11.87;;;6.93;;
11139;SDS011;5624;49.388;11.350;2022-12-05T06:14:22;11.90;;;7.50;;
11139;SDS011;5624;49.388;11.350;2022-12-05T06:16:48;13.73;;;7.77;;
11139;SDS011;5624;49.388;11.350;2022-12-05T06:19:13;13.20;;;7.93;;
11139;SDS011;5624;49.388;11.350;2022-12-05T06:21:39;15.87;;;9.17;;
11139;SDS011;5624;49.388;11.350;2022-12-05T06:24:05;11.33;;;8.00;;
11139;SDS011;5624;49.388;11.350;2022-12-05T06:26:31;14.17;;;7.97;;
11139;SDS011;5624;49.388;11.350;2022-12-05T06:28:56;12.97;;;7.67;;
11139;SDS011;5624;49.388;11.350;2022-12-05T06:31:22;11.30;;;8.13;;
11139;SDS011;5624;49.388;11.350;2022-12-05T06:33:52;11.37;;;7.63;;
11139;SDS011;5624;49.388;11.350;2022-12-05T06:36:18;12.80;;;7.47;;
11139;SDS011;5624;49.388;11.350;2022-12-05T06:38:45;11.13;;;8.00;;
11139;SDS011;5624;49.388;11.350;2022-12-05T06:41:14;13.67;;;8.40;;
11139;SDS011;5624;49.388;11.350;2022-12-05T06:43:42;11.50;;;6.23;;
11139;SDS011;5624;49.388;11.350;2022-12-05T06:46:09;11.80;;;7.10;;
11139;SDS011;5624;49.388;11.350;2022-12-05T06:48:37;9.70;;;6.70;;
11139;SDS011;5624;49.388;11.350;2022-12-05T06:51:03;10.50;;;7.13;;
11139;SDS011;5624;49.388;11.350;2022-12-05T06:53:31;11.10;;;6.77;;
11139;SDS011;5624;49.388;11.350;2022-12-05T06:55:57;11.03;;;7.40;;
11139;SDS011;5624;49.388;11.350;2022-12-05T06:58:25;11.57;;;6.40;;
11139;SDS011;5624;49.388;11.350;2022-12-05T07:00:51;10.40;;;6.73;;
11139;SDS011;5624;49.388;11.350;2022-12-05T07:03:36;10.53;;;6.50;;
11139;SDS011;5624;49.388;11.350;2022-12-05T07:06:03;11.47;;;7.17;;
11139;SDS011;5624;49.388;11.350;2022-12-05T07:08:30;12.90;;;6.77;;
11139;SDS011;5624;49.388;11.350;2022-12-05T07:10:56;11.30;;;6.43;;
11139;SDS011;5624;49.388;11.350;2022-12-05T07:13:21;10.03;;;6.93;;
11139;SDS011;5624;49.388;11.350;2022-12-05T07:15:47;11.63;;;6.60;;
11139;SDS011;5624;49.388;11.350;2022-12-05T07:18:14;11.23;;;7.83;;
11139;SDS011;5624;49.388;11.350;2022-12-05T07:20:41;9.30;;;5.87;;
11139;SDS011;5624;49.388;11.350;2022-12-05T07:23:07;9.93;;;6.67;;
11139;SDS011;5624;49.388;11.350;2022-12-05T07:25:33;8.93;;;5.67;;
11139;SDS011;5624;49.388;11.350;2022-12-05T07:28:04;8.53;;;5.67;;
11139;SDS011;5624;49.388;11.350;2022-12-05T07:30:30;7.30;;;5.40;;
11139;SDS011;5624;49.388;11.350;2022-12-05T07:32:56;7.23;;;4.43;;
11139;SDS011;5624;49.388;11.350;2022-12-05T07:35:21;7.37;;;5.30;;
11139;SDS011;5624;49.388;11.350;2022-12-05T07:37:47;9.30;;;5.60;;
11139;SDS011;5624;49.388;11.350;2022-12-05T07:40:12;8.20;;;5.03;;
11139;SDS011;5624;49.388;11.350;2022-12-05T07:42:38;8.90;;;6.03;;
11139;SDS011;5624;49.388;11.350;2022-12-05T07:45:04;9.73;;;5.97;;
11139;SDS011;5624;49.388;11.350;2022-12-05T07:47:30;12.40;;;6.17;;
11139;SDS011;5624;49.388;11.350;2022-12-05T07:49:56;9.37;;;6.70;;
11139;SDS011;5624;49.388;11.350;2022-12-05T07:52:21;11.70;;;7.13;;
11139;SDS011;5624;49.388;11.350;2022-12-05T07:54:47;11.80;;;7.27;;
11139;SDS011;5624;49.388;11.350;2022-12-05T07:57:13;12.50;;;7.10;;
11139;SDS011;5624;49.388;11.350;2022-12-05T07:59:38;13.90;;;8.30;;
11139;SDS011;5624;49.388;11.350;2022-12-05T08:02:04;14.83;;;7.70;;
11139;SDS011;5624;49.388;11.350;2022-12-05T08:04:30;12.33;;;8.03;;
11139;SDS011;5624;49.388;11.350;2022-12-05T08:06:56;12.47;;;7.37;;
11139;SDS011;5624;49.388;11.350;2022-12-05T08:09:21;10.00;;;6.53;;
11139;SDS011;5624;49.388;11.350;2022-12-05T08:11:47;14.43;;;8.63;;
11139;SDS011;5624;49.388;11.350;2022-12-05T08:14:12;16.40;;;9.83;;
11139;SDS011;5624;49.388;11.350;2022-12-05T08:16:38;13.90;;;8.33;;
11139;SDS011;5624;49.388;11.350;2022-12-05T08:19:04;15.07;;;8.47;;
11139;SDS011;5624;49.388;11.350;2022-12-05T08:21:32;13.77;;;8.37;;
11139;SDS011;5624;49.388;11.350;2022-12-05T08:23:58;15.63;;;9.87;;
11139;SDS011;5624;49.388;11.350;2022-12-05T08:26:25;15.93;;;8.50;;
11139;SDS011;5624;49.388;11.350;2022-12-05T08:28:53;15.50;;;8.70;;
11139;SDS011;5624;49.388;11.350;2022-12-05T08:31:40;14.30;;;8.50;;
11139;SDS011;5624;49.388;11.350;2022-12-05T08:34:11;14.70;;;9.00;;
11139;SDS011;5624;49.388;11.350;2022-12-05T08:36:37;20.03;;;9.60;;
11139;SDS011;5624;49.388;11.350;2022-12-05T08:39:04;16.23;;;9.37;;
11139;SDS011;5624;49.388;11.350;2022-12-05T08:41:31;14.40;;;9.87;;
11139;SDS011;5624;49.388;11.350;2022-12-05T08:44:01;16.40;;;9.10;;
11139;SDS011;5624;49.388;11.350;2022-12-05T08:46:35;15.13;;;9.83;;
11139;SDS011;5624;49.388;11.350;2022-12-05T08:49:03;15.73;;;9.33;;
11139;SDS011;5624;49.388;11.350;2022-12-05T08:51:29;16.17;;;10.27;;
11139;SDS011;5624;49.388;11.350;2022-12-05T08:53:55;18.37;;;10.93;;
11139;SDS011;5624;49.388;11.350;2022-12-05T08:56:20;19.37;;;10.67;;
11139;SDS011;5624;49.388;11.350;2022-12-05T08:58:46;19.07;;;11.43;;
11139;SDS011;5624;49.388;11.350;2022-12-05T09:01:16;19.63;;;11.83;;
11139;SDS011;5624;49.388;11.350;2022-12-05T09:03:43;19.03;;;11.07;;
11139;SDS011;5624;49.388;11.350;2022-12-05T09:06:13;20.97;;;11.23;;
11139;SDS011;5624;49.388;11.350;2022-12-05T09:08:41;16.90;;;10.63;;
11139;SDS011;5624;49.388;11.350;2022-12-05T09:11:11;21.10;;;11.10;;
11139;SDS011;5624;49.388;11.350;2022-12-05T09:13:41;17.20;;;11.50;;
11139;SDS011;5624;49.388;11.350;2022-12-05T09:16:12;22.60;;;11.03;;
11139;SDS011;5624;49.388;11.350;2022-12-05T09:18:48;21.03;;;11.13;;
11139;SDS011;5624;49.388;11.350;2022-12-05T09:21:16;17.40;;;10.97;;
11139;SDS011;5624;49.388;11.350;2022-12-05T09:23:44;17.30;;;10.20;;
11139;SDS011;5624;49.388;11.350;2022-12-05T09:26:11;19.60;;;11.83;;
11139;SDS011;5624;49.388;11.350;2022-12-05T09:28:38;17.57;;;10.77;;
11139;SDS011;5624;49.388;11.350;2022-12-05T09:31:06;18.77;;;11.33;;
11139;SDS011;5624;49.388;11.350;2022-12-05T09:33:35;19.93;;;11.10;;
11139;SDS011;5624;49.388;11.350;2022-12-05T09:36:03;21.20;;;11.53;;
11139;SDS011;5624;49.388;11.350;2022-12-05T09:38:30;19.27;;;11.03;;
11139;SDS011;5624;49.388;11.350;2022-12-05T09:44:02;18.93;;;11.80;;
11139;SDS011;5624;49.388;11.350;2022-12-05T09:49:22;19.60;;;11.13;;
11139;SDS011;5624;49.388;11.350;2022-12-05T09:51:48;17.77;;;10.97;;
11139;SDS011;5624;49.388;11.350;2022-12-05T09:54:16;16.50;;;10.33;;
11139;SDS011;5624;49.388;11.350;2022-12-05T09:56:42;17.47;;;10.30;;
11139;SDS011;5624;49.388;11.350;2022-12-05T09:59:13;19.87;;;10.67;;
11139;SDS011;5624;49.388;11.350;2022-12-05T10:01:42;19.27;;;10.57;;
11139;SDS011;5624;49.388;11.350;2022-12-05T10:06:39;18.47;;;10.67;;
11139;SDS011;5624;49.388;11.350;2022-12-05T10:12:10;17.87;;;10.17;;
11139;SDS011;5624;49.388;11.350;2022-12-05T10:17:30;20.23;;;13.70;;
11139;SDS011;5624;49.388;11.350;2022-12-05T10:19:58;20.23;;;13.27;;
11139;SDS011;5624;49.388;11.350;2022-12-05T10:22:34;17.93;;;12.13;;
11139;SDS011;5624;49.388;11.350;2022-12-05T10:25:12;18.13;;;11.87;;
11139;SDS011;5624;49.388;11.350;2022-12-05T10:27:52;15.67;;;10.67;;
11139;SDS011;5624;49.388;11.350;2022-12-05T10:30:22;18.63;;;10.53;;
11139;SDS011;5624;49.388;11.350;2022-12-05T10:32:53;15.93;;;10.37;;
11139;SDS011;5624;49.388;11.350;2022-12-05T10:35:24;18.23;;;11.10;;
11139;SDS011;5624;49.388;11.350;2022-12-05T10:37:52;22.37;;;12.17;;
11139;SDS011;5624;49.388;11.350;2022-12-05T10:40:33;17.33;;;11.17;;
11139;SDS011;5624;49.388;11.350;2022-12-05T10:43:07;15.57;;;10.43;;
11139;SDS011;5624;49.388;11.350;2022-12-05T10:45:40;16.90;;;10.70;;
11139;SDS011;5624;49.388;11.350;2022-12-05T10:48:10;20.20;;;10.03;;
11139;SDS011;5624;49.388;11.350;2022-12-05T10:50:38;15.03;;;9.30;;
11139;SDS011;5624;49.388;11.350;2022-12-05T10:53:06;14.90;;;9.50;;
11139;SDS011;5624;49.388;11.350;2022-12-05T10:55:36;16.10;;;9.83;;
11139;SDS011;5624;49.388;11.350;2022-12-05T10:58:10;17.10;;;9.60;;
11139;SDS011;5624;49.388;11.350;2022-12-05T11:00:36;15.13;;;10.23;;
11139;SDS011;5624;49.388;11.350;2022-12-05T11:03:15;14.57;;;10.07;;
11139;SDS011;5624;49.388;11.350;2022-12-05T11:05:48;15.37;;;9.30;;
11139;SDS011;5624;49.388;11.350;2022-12-05T11:08:28;16.73;;;10.53;;
11139;SDS011;5624;49.388;11.350;2022-12-05T11:13:33;15.23;;;9.30;;
11139;SDS011;5624;49.388;11.350;2022-12-05T11:15:59;16.10;;;9.23;;
11139;SDS011;5624;49.388;11.350;2022-12-05T11:18:29;13.43;;;9.33;;
11139;SDS011;5624;49.388;11.350;2022-12-05T11:21:18;14.00;;;10.13;;
11139;SDS011;5624;49.388;11.350;2022-12-05T11:23:44;14.00;;;9.70;;
11139;SDS011;5624;49.388;11.350;2022-12-05T11:26:15;13.47;;;8.90;;
11139;SDS011;5624;49.388;11.350;2022-12-05T11:28:58;15.60;;;9.93;;
11139;SDS011;5624;49.388;11.350;2022-12-05T11:31:28;18.43;;;9.80;;
11139;SDS011;5624;49.388;11.350;2022-12-05T11:34:13;14.90;;;9.13;;
11139;SDS011;5624;49.388;11.350;2022-12-05T11:36:48;16.03;;;9.80;;
11139;SDS011;5624;49.388;11.350;2022-12-05T11:39:18;14.30;;;9.27;;
11139;SDS011;5624;49.388;11.350;2022-12-05T12:01:25;13.47;;;8.13;;
11139;SDS011;5624;49.388;11.350;2022-12-05T12:25:44;14.27;;;9.90;;
11139;SDS011;5624;49.388;11.350;2022-12-05T12:36:14;13.57;;;8.57;;
11139;SDS011;5624;49.388;11.350;2022-12-05T12:44:42;13.30;;;7.73;;
11139;SDS011;5624;49.388;11.350;2022-12-05T12:52:59;11.20;;;7.23;;
11139;SDS011;5624;49.388;11.350;2022-12-05T13:01:00;11.80;;;7.93;;
11139;SDS011;5624;49.388;11.350;2022-12-05T13:03:39;11.03;;;7.00;;
11139;SDS011;5624;49.388;11.350;2022-12-05T13:06:20;11.43;;;7.23;;
11139;SDS011;5624;49.388;11.350;2022-12-05T13:08:53;12.40;;;7.53;;
11139;SDS011;5624;49.388;11.350;2022-12-05T13:11:23;12.07;;;7.33;;
11139;SDS011;5624;49.388;11.350;2022-12-05T13:13:51;14.83;;;8.20;;
11139;SDS011;5624;49.388;11.350;2022-12-05T13:16:26;12.50;;;7.93;;
11139;SDS011;5624;49.388;11.350;2022-12-05T13:18:56;12.47;;;8.20;;
11139;SDS011;5624;49.388;11.350;2022-12-05T13:21:23;11.07;;;7.23;;
11139;SDS011;5624;49.388;11.350;2022-12-05T13:23:51;11.03;;;7.57;;
11139;SDS011;5624;49.388;11.350;2022-12-05T13:26:19;11.67;;;7.23;;
11139;SDS011;5624;49.388;11.350;2022-12-05T13:28:57;13.53;;;8.73;;
11139;SDS011;5624;49.388;11.350;2022-12-05T13:31:38;11.60;;;7.60;;
11139;SDS011;5624;49.388;11.350;2022-12-05T13:34:31;12.63;;;8.03;;
11139;SDS011;5624;49.388;11.350;2022-12-05T13:37:42;12.73;;;9.07;;
11139;SDS011;5624;49.388;11.350;2022-12-05T13:40:33;12.90;;;9.50;;
11139;SDS011;5624;49.388;11.350;2022-12-05T13:43:23;11.63;;;8.60;;
11139;SDS011;5624;49.388;11.350;2022-12-05T13:46:03;14.10;;;7.33;;
11139;SDS011;5624;49.388;11.350;2022-12-05T13:48:32;16.30;;;9.03;;
11139;SDS011;5624;49.388;11.350;2022-12-05T13:53:35;10.87;;;7.77;;
11139;SDS011;5624;49.388;11.350;2022-12-05T14:05:52;11.30;;;8.47;;
11139;SDS011;5624;49.388;11.350;2022-12-05T14:22:02;11.27;;;7.57;;
11139;SDS011;5624;49.388;11.350;2022-12-05T14:27:40;10.90;;;8.07;;
11139;SDS011;5624;49.388;11.350;2022-12-05T14:30:50;14.27;;;9.40;;
11139;SDS011;5624;49.388;11.350;2022-12-05T14:33:41;11.53;;;7.33;;
11139;SDS011;5624;49.388;11.350;2022-12-05T14:36:11;13.00;;;7.53;;
11139;SDS011;5624;49.388;11.350;2022-12-05T14:38:40;11.40;;;7.10;;
11139;SDS011;5624;49.388;11.350;2022-12-05T14:41:22;12.27;;;7.43;;
11139;SDS011;5624;49.388;11.350;2022-12-05T14:44:12;9.80;;;6.50;;
11139;SDS011;5624;49.388;11.350;2022-12-05T14:46:43;11.13;;;7.00;;
11139;SDS011;5624;49.388;11.350;2022-12-05T14:49:53;9.83;;;7.20;;
11139;SDS011;5624;49.388;11.350;2022-12-05T14:51:59;9.40;;;6.70;;
11139;SDS011;5624;49.388;11.350;2022-12-05T14:54:32;15.10;;;8.83;;
11139;SDS011;5624;49.388;11.350;2022-12-05T14:57:03;12.07;;;7.80;;
11139;SDS011;5624;49.388;11.350;2022-12-05T14:59:44;13.47;;;7.80;;
11139;SDS011;5624;49.388;11.350;2022-12-05T15:02:23;15.40;;;9.53;;
11139;SDS011;5624;49.388;11.350;2022-12-05T15:04:55;14.40;;;9.17;;
11139;SDS011;5624;49.388;11.350;2022-12-05T15:07:42;13.77;;;8.93;;
11139;SDS011;5624;49.388;11.350;2022-12-05T15:12:37;11.73;;;7.67;;
11139;SDS011;5624;49.388;11.350;2022-12-05T15:26:26;17.50;;;12.10;;
11139;SDS011;5624;49.388;11.350;2022-12-05T15:31:54;17.07;;;11.83;;
11139;SDS011;5624;49.388;11.350;2022-12-05T15:42:24;19.27;;;11.07;;
11139;SDS011;5624;49.388;11.350;2022-12-05T15:47:45;15.13;;;10.07;;
11139;SDS011;5624;49.388;11.350;2022-12-05T15:53:05;30.50;;;19.40;;
11139;SDS011;5624;49.388;11.350;2022-12-05T15:55:47;20.30;;;11.50;;
11139;SDS011;5624;49.388;11.350;2022-12-05T15:58:35;19.60;;;12.10;;
11139;SDS011;5624;49.388;11.350;2022-12-05T16:01:10;21.77;;;12.13;;
11139;SDS011;5624;49.388;11.350;2022-12-05T16:06:16;33.83;;;22.83;;
11139;SDS011;5624;49.388;11.350;2022-12-05T16:09:06;25.83;;;19.50;;
11139;SDS011;5624;49.388;11.350;2022-12-05T16:11:37;19.63;;;11.57;;
11139;SDS011;5624;49.388;11.350;2022-12-05T16:14:04;21.47;;;14.37;;
11139;SDS011;5624;49.388;11.350;2022-12-05T16:16:32;22.03;;;12.33;;
11139;SDS011;5624;49.388;11.350;2022-12-05T16:19:18;23.70;;;13.70;;
11139;SDS011;5624;49.388;11.350;2022-12-05T16:22:33;22.27;;;14.17;;
11139;SDS011;5624;49.388;11.350;2022-12-05T16:24:42;66.43;;;45.33;;
11139;SDS011;5624;49.388;11.350;2022-12-05T16:29:39;37.47;;;23.00;;
11139;SDS011;5624;49.388;11.350;2022-12-05T16:32:19;39.87;;;25.43;;
11139;SDS011;5624;49.388;11.350;2022-12-05T16:34:48;27.77;;;17.00;;
11139;SDS011;5624;49.388;11.350;2022-12-05T16:37:31;19.40;;;13.17;;
11139;SDS011;5624;49.388;11.350;2022-12-05T16:39:57;23.20;;;13.30;;
11139;SDS011;5624;49.388;11.350;2022-12-05T16:42:27;24.30;;;15.63;;
11139;SDS011;5624;49.388;11.350;2022-12-05T16:45:00;19.53;;;13.53;;
11139;SDS011;5624;49.388;11.350;2022-12-05T16:48:00;28.17;;;16.07;;
11139;SDS011;5624;49.388;11.350;2022-12-05T16:50:33;29.37;;;20.63;;
11139;SDS011;5624;49.388;11.350;2022-12-05T16:55:33;22.77;;;14.60;;
11139;SDS011;5624;49.388;11.350;2022-12-05T16:58:02;21.10;;;17.27;;
11139;SDS011;5624;49.388;11.350;2022-12-05T17:00:29;18.70;;;12.07;;
11139;SDS011;5624;49.388;11.350;2022-12-05T17:02:56;24.93;;;19.03;;
11139;SDS011;5624;49.388;11.350;2022-12-05T17:05:22;19.00;;;11.53;;
11139;SDS011;5624;49.388;11.350;2022-12-05T17:07:48;16.03;;;11.50;;
11139;SDS011;5624;49.388;11.350;2022-12-05T17:10:14;17.27;;;11.43;;
11139;SDS011;5624;49.388;11.350;2022-12-05T17:12:40;18.97;;;13.20;;
11139;SDS011;5624;49.388;11.350;2022-12-05T17:15:16;16.53;;;11.57;;
11139;SDS011;5624;49.388;11.350;2022-12-05T17:17:43;15.20;;;10.13;;
11139;SDS011;5624;49.388;11.350;2022-12-05T17:20:10;16.93;;;11.30;;
11139;SDS011;5624;49.388;11.350;2022-12-05T17:22:37;17.47;;;10.90;;
11139;SDS011;5624;49.388;11.350;2022-12-05T17:25:10;16.80;;;11.07;;
11139;SDS011;5624;49.388;11.350;2022-12-05T17:27:43;16.83;;;10.83;;
11139;SDS011;5624;49.388;11.350;2022-12-05T17:30:09;13.40;;;9.37;;
11139;SDS011;5624;49.388;11.350;2022-12-05T17:32:34;17.43;;;12.67;;
11139;SDS011;5624;49.388;11.350;2022-12-05T17:35:00;15.50;;;11.37;;
11139;SDS011;5624;49.388;11.350;2022-12-05T17:37:26;12.53;;;8.50;;
11139;SDS011;5624;49.388;11.350;2022-12-05T17:39:51;14.10;;;9.10;;
11139;SDS011;5624;49.388;11.350;2022-12-05T17:42:17;15.07;;;8.17;;
11139;SDS011;5624;49.388;11.350;2022-12-05T17:44:43;12.03;;;8.10;;
11139;SDS011;5624;49.388;11.350;2022-12-05T17:47:09;15.93;;;9.07;;
11139;SDS011;5624;49.388;11.350;2022-12-05T17:49:34;13.93;;;9.03;;
11139;SDS011;5624;49.388;11.350;2022-12-05T17:52:00;11.50;;;8.10;;
11139;SDS011;5624;49.388;11.350;2022-12-05T17:54:28;11.63;;;8.10;;
11139;SDS011;5624;49.388;11.350;2022-12-05T17:56:54;13.90;;;9.07;;
11139;SDS011;5624;49.388;11.350;2022-12-05T17:59:20;15.80;;;10.10;;
11139;SDS011;5624;49.388;11.350;2022-12-05T18:01:45;12.83;;;9.10;;
11139;SDS011;5624;49.388;11.350;2022-12-05T18:04:11;12.20;;;8.47;;